KMCK

McCook Ben Nelson Regional Airport

Airport
ICAO code
KMCK
Summary
ICAO Region
NAM
ICAO Territory
Location

McCook, Nebraska,

Coordinates
40° 12' 23" N , 100° 35' 31" W
KCC
Metar
Observation
KMCK 070853Z AUTO 01010KT 10SM BKN050 04/M03 A3051 RMK AO2 SLP329 T00441028 51022
Station
McCook, McCook Municipal Airport
Date/Time
2022-10-07 08:53:00
Wind direction
10°
Wind speed
10 kts
Lowest cloud amount
broken clouds
Temperature
4.4°C
Dew point
-2.8°C
Humidity
59%
Weather condition
n/a

Description

McCook Ben Nelson Regional Airport is a public-use airport located 4 km east of the central business district of McCook, a city in Red Willow County, Nebraska.

Climatology

Humid continental climate (Köppen climate classification Dfa) - characterized by four seasons: cold, windy, snowy winters, mild springs, hot, humid summers, and crisp and relatively short autumns. Precipitation reaches its lowest in January and February and peaks in summer and latter half of spring.

Runways

Designator Length Width Surface Rops
17/35 411 49 GRS No/No
4/22 1219 23 CONC-G Yes/Yes
12/30 1966 30 CON Yes/Yes

Airport map

Aerial View

SKYbrary Partners:

Safety knowledge contributed by: